createdAt,value
2023-04-02T00:02:47.708Z,99.90
2023-04-02T00:07:50.258Z,99.90
2023-04-02T00:13:01.673Z,99.90
2023-04-02T00:18:02.650Z,99.90
2023-04-02T00:23:01.207Z,99.90
2023-04-02T00:27:59.983Z,99.90
2023-04-02T00:32:58.898Z,99.90
2023-04-02T00:37:59.094Z,99.90
2023-04-02T00:43:00.659Z,99.90
2023-04-02T00:48:00.752Z,99.90
2023-04-02T00:53:05.753Z,99.90
2023-04-02T00:58:05.356Z,99.90
2023-04-02T01:03:30.395Z,99.90
2023-04-02T01:08:41.401Z,99.90
2023-04-02T01:13:47.307Z,99.90
2023-04-02T01:18:53.784Z,99.90
2023-04-02T01:24:02.722Z,99.90
2023-04-02T01:29:08.176Z,99.90
2023-04-02T01:34:09.389Z,99.90
2023-04-02T01:39:16.404Z,99.90
2023-04-02T01:44:20.894Z,99.90
2023-04-02T01:49:22.522Z,99.90
2023-04-02T01:54:22.236Z,99.90
2023-04-02T01:59:24.351Z,99.90
2023-04-02T02:04:30.083Z,99.90
2023-04-02T02:09:31.437Z,99.90
2023-04-02T02:14:32.713Z,99.90
2023-04-02T02:19:36.210Z,99.90
2023-04-02T02:24:36.514Z,99.90
2023-04-02T02:29:39.849Z,99.90
2023-04-02T02:34:41.966Z,99.90
2023-04-02T02:39:44.394Z,99.90
2023-04-02T02:44:48.467Z,99.90
2023-04-02T02:49:50.914Z,99.90
2023-04-02T02:54:53.306Z,99.90
2023-04-02T02:59:58.309Z,99.90
2023-04-02T03:04:58.767Z,99.90
2023-04-02T03:10:08.168Z,99.90
2023-04-02T03:15:17.872Z,99.90
2023-04-02T03:20:22.461Z,99.90
2023-04-02T03:25:29.460Z,99.90
2023-04-02T03:30:38.049Z,99.90
2023-04-02T03:35:44.463Z,99.90
2023-04-02T03:40:46.197Z,99.90
2023-04-02T03:45:51.187Z,99.90
2023-04-02T03:50:56.726Z,99.90
2023-04-02T03:55:57.589Z,99.90
2023-04-02T04:01:02.125Z,99.90
2023-04-02T04:06:03.634Z,99.90
2023-04-02T04:11:10.021Z,99.90
2023-04-02T04:16:13.386Z,99.90
2023-04-02T04:21:17.495Z,99.90
2023-04-02T04:26:24.919Z,99.90
2023-04-02T04:31:39.328Z,99.90
2023-04-02T04:36:54.360Z,99.90
2023-04-02T04:42:00.132Z,99.90
2023-04-02T04:47:05.313Z,99.90
2023-04-02T04:52:10.533Z,99.90
2023-04-02T04:57:24.670Z,99.90
2023-04-02T05:02:31.115Z,99.90
2023-04-02T05:07:37.546Z,99.90
2023-04-02T05:12:41.261Z,99.90
2023-04-02T05:17:51.635Z,99.90
2023-04-02T05:22:56.118Z,99.90
2023-04-02T05:28:00.895Z,99.90
2023-04-02T05:33:05.483Z,99.90
2023-04-02T05:38:06.971Z,99.90
2023-04-02T05:43:10.185Z,99.90
2023-04-02T05:48:20.098Z,99.90
2023-04-02T05:53:22.633Z,99.90
2023-04-02T05:58:36.096Z,99.90
2023-04-02T06:03:52.692Z,99.90
2023-04-02T06:08:58.382Z,99.90
2023-04-02T06:13:57.450Z,99.90
2023-04-02T06:18:59.052Z,99.90
2023-04-02T06:24:00.683Z,99.90
2023-04-02T06:29:06.150Z,99.90
2023-04-02T06:34:11.870Z,99.90
2023-04-02T06:39:18.915Z,99.90
2023-04-02T06:44:22.939Z,99.90
2023-04-02T06:49:48.739Z,99.90
2023-04-02T06:54:47.883Z,99.90
2023-04-02T06:59:47.839Z,99.90
2023-04-02T07:04:54.128Z,99.90
2023-04-02T07:09:53.757Z,99.90
2023-04-02T07:14:52.430Z,99.90
2023-04-02T07:19:52.752Z,99.90
2023-04-02T07:24:52.694Z,99.90
2023-04-02T07:29:51.304Z,99.90
2023-04-02T07:34:49.790Z,99.90
2023-04-02T07:39:49.691Z,99.90
2023-04-02T07:44:48.188Z,99.90
2023-04-02T07:49:47.058Z,99.90
2023-04-02T07:54:45.595Z,99.90
2023-04-02T07:59:45.453Z,99.90
2023-04-02T08:04:43.931Z,99.90
2023-04-02T08:09:42.191Z,99.90
2023-04-02T08:14:41.421Z,99.90
2023-04-02T08:19:53.762Z,99.90
2023-04-02T08:24:53.714Z,99.90
2023-04-02T08:29:52.356Z,99.90
2023-04-02T08:34:52.240Z,99.90
2023-04-02T08:39:50.898Z,99.90
2023-04-02T08:44:58.373Z,99.90
2023-04-02T08:50:02.576Z,99.90
2023-04-02T08:55:03.341Z,99.90
2023-04-02T09:00:10.162Z,99.90
2023-04-02T09:05:19.131Z,99.90
2023-04-02T09:10:18.931Z,99.90
2023-04-02T09:15:25.088Z,99.90
2023-04-02T09:20:27.975Z,99.90
2023-04-02T09:25:28.546Z,99.90
2023-04-02T09:30:40.751Z,99.90
2023-04-02T09:35:56.691Z,99.90
2023-04-02T09:41:00.384Z,99.90
2023-04-02T09:46:02.013Z,99.90
2023-04-02T09:51:13.952Z,99.90
2023-04-02T09:56:15.934Z,99.90
2023-04-02T10:01:30.827Z,99.90
2023-04-02T10:06:32.628Z,99.90
2023-04-02T10:11:46.285Z,99.90
2023-04-02T10:16:51.953Z,99.90
2023-04-02T10:21:53.767Z,99.90
2023-04-02T10:27:02.363Z,99.90
2023-04-02T10:32:06.484Z,99.90
2023-04-02T10:37:22.367Z,99.20
2023-04-02T10:42:27.627Z,99.40
2023-04-02T10:47:35.020Z,98.40
2023-04-02T10:52:39.686Z,97.90
2023-04-02T10:57:40.975Z,97.20
2023-04-02T11:02:48.872Z,98.50
2023-04-02T11:07:58.956Z,98.30
2023-04-02T11:13:02.930Z,98.50
2023-04-02T11:18:01.345Z,96.20
2023-04-02T11:23:12.379Z,96.40
2023-04-02T11:28:26.151Z,96.10
2023-04-02T11:33:44.012Z,96.30
2023-04-02T11:38:54.903Z,95.50
2023-04-02T11:44:02.956Z,94.70
2023-04-02T11:49:37.875Z,94.20
2023-04-02T11:54:39.675Z,95.80
2023-04-02T11:59:47.667Z,94.70
2023-04-02T12:05:04.625Z,95.30
2023-04-02T12:10:07.288Z,95.60
2023-04-02T12:15:10.458Z,93.70
2023-04-02T12:20:22.212Z,93.60
2023-04-02T12:25:29.734Z,95.20
2023-04-02T12:30:28.482Z,94.00
2023-04-02T12:35:31.060Z,93.90
2023-04-02T12:40:30.974Z,93.50
2023-04-02T12:45:33.313Z,92.60
2023-04-02T12:50:31.504Z,93.30
2023-04-02T12:55:32.203Z,93.40
2023-04-02T13:00:36.479Z,93.40
2023-04-02T13:05:38.094Z,93.30
2023-04-02T13:10:38.119Z,93.30
2023-04-02T13:15:37.132Z,93.40
2023-04-02T13:20:37.513Z,93.40
2023-04-02T13:25:38.470Z,94.20
2023-04-02T13:30:37.438Z,93.70
2023-04-02T13:35:36.122Z,94.50
2023-04-02T13:40:35.484Z,94.00
2023-04-02T13:45:39.257Z,94.10
2023-04-02T13:50:38.303Z,94.20
2023-04-02T13:55:40.270Z,94.20
2023-04-02T14:00:40.183Z,95.00
2023-04-02T14:05:43.501Z,95.70
2023-04-02T14:11:04.291Z,95.20
2023-04-02T14:16:19.568Z,95.40
2023-04-02T14:21:26.897Z,95.90
2023-04-02T14:26:39.865Z,95.10
2023-04-02T14:31:44.882Z,95.70
2023-04-02T14:36:56.742Z,95.00
2023-04-02T14:42:02.269Z,94.00
2023-04-02T14:47:12.419Z,95.80
2023-04-02T14:52:15.278Z,95.70
2023-04-02T14:57:21.810Z,95.10
2023-04-02T15:02:29.383Z,94.80
2023-04-02T15:07:34.813Z,95.30
2023-04-02T15:12:37.441Z,95.60
2023-04-02T15:17:37.655Z,96.00
2023-04-02T15:22:41.273Z,96.40
2023-04-02T15:28:03.655Z,97.00
2023-04-02T15:33:32.007Z,96.80
2023-04-02T15:38:36.247Z,98.00
2023-04-02T15:43:42.976Z,98.00
2023-04-02T15:49:06.090Z,98.30
2023-04-02T15:54:14.388Z,99.00
2023-04-02T15:59:41.551Z,98.60
2023-04-02T16:04:50.251Z,98.50
2023-04-02T16:09:57.142Z,99.10
2023-04-02T16:15:06.188Z,99.70
2023-04-02T16:20:18.011Z,99.20
2023-04-02T16:25:19.749Z,99.00
2023-04-02T16:30:42.953Z,99.40
2023-04-02T16:35:55.418Z,99.00
2023-04-02T16:41:08.208Z,99.60
2023-04-02T16:46:12.805Z,99.30
2023-04-02T16:51:21.490Z,99.50
2023-04-02T16:56:35.320Z,99.90
2023-04-02T17:01:43.859Z,99.90
2023-04-02T17:06:45.274Z,99.80
2023-04-02T17:11:49.144Z,99.90
2023-04-02T17:16:50.675Z,99.90
2023-04-02T17:21:54.104Z,99.90
2023-04-02T17:26:56.820Z,99.90
2023-04-02T17:32:01.380Z,99.90
2023-04-02T17:37:16.720Z,99.90
2023-04-02T17:42:20.080Z,99.90
2023-04-02T17:47:22.444Z,99.90
2023-04-02T17:52:30.152Z,99.90
2023-04-02T17:57:42.165Z,99.90
2023-04-02T18:02:56.687Z,99.90
2023-04-02T18:08:04.488Z,99.90
2023-04-02T18:13:08.824Z,99.90
2023-04-02T18:18:20.241Z,99.90
2023-04-02T18:23:34.892Z,99.90
2023-04-02T18:28:46.877Z,99.90
2023-04-02T18:34:07.599Z,99.90
2023-04-02T18:39:17.727Z,99.90
2023-04-02T18:44:36.413Z,99.90
2023-04-02T18:49:40.308Z,99.90
2023-04-02T18:54:42.693Z,99.90
2023-04-02T18:59:46.538Z,99.90
2023-04-02T19:04:51.403Z,99.90
2023-04-02T19:09:53.247Z,99.90
2023-04-02T19:14:52.482Z,99.90
2023-04-02T19:20:02.905Z,99.90
2023-04-02T19:25:24.765Z,99.90
2023-04-02T19:30:40.445Z,99.90
2023-04-02T19:35:47.840Z,99.90
2023-04-02T19:40:52.752Z,99.90
2023-04-02T19:45:53.599Z,99.90
2023-04-02T19:50:52.149Z,99.90
2023-04-02T19:55:52.571Z,99.90
2023-04-02T20:00:51.132Z,99.90
2023-04-02T20:05:50.210Z,99.90
2023-04-02T20:10:48.765Z,99.90
2023-04-02T20:15:49.514Z,99.90
2023-04-02T20:20:48.822Z,99.90
2023-04-02T20:25:47.543Z,99.90
2023-04-02T20:30:46.721Z,99.90
2023-04-02T20:35:46.682Z,99.90
2023-04-02T20:40:46.428Z,99.90
2023-04-02T20:45:55.029Z,99.90
2023-04-02T20:50:55.117Z,99.90
2023-04-02T20:55:53.543Z,99.90
2023-04-02T21:00:51.664Z,99.90
2023-04-02T21:05:50.719Z,99.90
2023-04-02T21:10:51.011Z,99.90
2023-04-02T21:15:49.499Z,99.90
2023-04-02T21:20:57.645Z,99.90
2023-04-02T21:25:59.071Z,99.90
2023-04-02T21:31:04.201Z,99.90
2023-04-02T21:36:07.605Z,99.90
2023-04-02T21:41:15.712Z,99.90
2023-04-02T21:46:14.028Z,99.90
2023-04-02T21:51:14.409Z,99.90
2023-04-02T21:56:16.850Z,99.90
2023-04-02T22:01:26.571Z,99.90
2023-04-02T22:06:27.820Z,99.90
2023-04-02T22:11:30.139Z,99.90
2023-04-02T22:16:30.463Z,99.90
2023-04-02T22:21:30.802Z,99.90
2023-04-02T22:26:32.625Z,99.90
2023-04-02T22:31:33.274Z,99.90
2023-04-02T22:36:32.524Z,99.90
2023-04-02T22:41:32.637Z,99.90
2023-04-02T22:46:31.950Z,99.90
2023-04-02T22:51:30.705Z,99.90
2023-04-02T22:56:33.456Z,99.90
2023-04-02T23:01:34.469Z,99.90
2023-04-02T23:06:33.385Z,99.90
2023-04-02T23:11:33.234Z,99.90
2023-04-02T23:16:31.835Z,99.90
2023-04-02T23:21:30.411Z,99.90
2023-04-02T23:26:31.647Z,99.90
2023-04-02T23:31:32.196Z,99.90
2023-04-02T23:36:32.277Z,99.90
2023-04-02T23:41:31.330Z,99.90
2023-04-02T23:46:32.154Z,99.90
2023-04-02T23:51:32.661Z,99.90
2023-04-02T23:56:31.155Z,99.90
